createdAt,value
2022-10-18T00:02:46.797Z,102063.69
2022-10-18T00:05:50.007Z,102069.53
2022-10-18T00:08:52.517Z,102056.69
2022-10-18T00:11:55.414Z,102063.25
2022-10-18T00:14:57.796Z,102073.53
2022-10-18T00:18:00.187Z,102039.84
2022-10-18T00:21:22.795Z,102068.34
2022-10-18T00:24:25.171Z,102055.16
2022-10-18T00:27:29.712Z,102070.50
2022-10-18T00:30:32.192Z,102041.16
2022-10-18T00:33:34.557Z,102055.63
2022-10-18T00:36:37.014Z,102041.59
2022-10-18T00:39:39.509Z,102037.34
2022-10-18T00:42:41.834Z,102035.69
2022-10-18T00:45:44.325Z,102029.47
2022-10-18T00:48:46.762Z,102017.16
2022-10-18T00:52:11.820Z,102042.69
2022-10-18T00:55:14.311Z,101999.19
2022-10-18T00:58:17.490Z,102008.50
2022-10-18T01:01:22.269Z,102013.06
2022-10-18T01:04:27.086Z,102032.38
2022-10-18T01:07:35.516Z,102019.75
2022-10-18T01:10:47.831Z,102026.56
2022-10-18T01:14:11.234Z,102027.31
2022-10-18T01:17:19.338Z,102015.91
2022-10-18T01:20:55.752Z,102007.13
2022-10-18T01:24:16.443Z,102014.84
2022-10-18T01:27:24.504Z,102008.50
2022-10-18T01:30:33.529Z,102005.63
2022-10-18T01:33:43.193Z,102005.63
2022-10-18T01:36:51.312Z,102014.84
2022-10-18T01:39:55.208Z,102005.06
2022-10-18T01:42:57.629Z,101997.63
2022-10-18T01:46:00.702Z,101992.91
2022-10-18T01:49:04.204Z,102004.53
2022-10-18T01:55:14.548Z,101988.16
2022-10-18T01:58:26.102Z,101975.19
2022-10-18T02:01:37.615Z,101977.78
2022-10-18T02:04:59.067Z,101989.44
2022-10-18T02:08:23.758Z,101985.22
2022-10-18T02:11:28.164Z,101970.50
2022-10-18T02:14:30.851Z,101959.97
2022-10-18T02:17:33.512Z,101965.97
2022-10-18T02:20:36.680Z,101973.44
2022-10-18T02:23:39.221Z,101966.34
2022-10-18T02:26:42.110Z,101973.19
2022-10-18T02:29:44.680Z,101976.59
2022-10-18T02:32:58.784Z,101966.88
2022-10-18T02:36:06.572Z,101978.75
2022-10-18T02:39:16.566Z,101959.00
2022-10-18T02:42:18.955Z,101972.66
2022-10-18T02:45:21.428Z,101966.09
2022-10-18T02:48:23.870Z,101953.41
2022-10-18T02:51:26.248Z,101967.44
2022-10-18T02:54:28.741Z,101972.47
2022-10-18T02:57:31.462Z,101935.59
2022-10-18T03:00:34.228Z,101968.56
2022-10-18T03:03:36.561Z,101958.53
2022-10-18T03:06:38.979Z,101971.19
2022-10-18T03:09:41.335Z,101963.84
2022-10-18T03:12:43.667Z,101967.25
2022-10-18T03:15:47.924Z,101969.09
2022-10-18T03:18:50.326Z,101960.38
2022-10-18T03:21:52.729Z,101949.81
2022-10-18T03:24:55.116Z,101968.56
2022-10-18T03:27:57.471Z,101950.09
2022-10-18T03:31:02.097Z,101948.53
2022-10-18T03:34:04.840Z,101947.16
2022-10-18T03:37:07.221Z,101968.53
2022-10-18T03:40:10.177Z,101968.31
2022-10-18T03:43:13.125Z,101951.97
2022-10-18T03:46:15.567Z,101949.34
2022-10-18T03:49:17.907Z,101951.72
2022-10-18T03:52:20.267Z,101944.38
2022-10-18T03:55:22.640Z,101956.22
2022-10-18T03:58:25.192Z,101954.94
2022-10-18T04:01:27.746Z,101949.94
2022-10-18T04:04:30.159Z,101957.06
2022-10-18T04:07:32.562Z,101947.56
2022-10-18T04:10:37.587Z,101957.84
2022-10-18T04:13:40.155Z,101958.66
2022-10-18T04:16:42.567Z,101945.97
2022-10-18T04:19:44.980Z,101961.81
2022-10-18T04:22:48.454Z,101967.38
2022-10-18T04:25:50.826Z,101964.19
2022-10-18T04:28:53.299Z,101940.72
2022-10-18T04:31:55.784Z,101945.72
2022-10-18T04:34:58.172Z,101946.25
2022-10-18T04:38:00.529Z,101948.38
2022-10-18T04:41:04.160Z,101948.63
2022-10-18T04:44:06.541Z,101944.44
2022-10-18T04:47:08.917Z,101936.50
2022-10-18T04:50:11.239Z,101935.97
2022-10-18T04:53:13.613Z,101912.75
2022-10-18T04:56:16.716Z,101918.81
2022-10-18T04:59:19.288Z,101909.81
2022-10-18T05:02:21.929Z,101932.47
2022-10-18T05:05:27.031Z,101932.72
2022-10-18T05:08:36.523Z,101934.03
2022-10-18T05:11:39.039Z,101924.03
2022-10-18T05:14:41.737Z,101943.84
2022-10-18T05:17:44.228Z,101924.06
2022-10-18T05:20:47.005Z,101931.72
2022-10-18T05:23:49.409Z,101927.25
2022-10-18T05:26:51.771Z,101934.13
2022-10-18T05:29:54.140Z,101933.06
2022-10-18T05:32:56.456Z,101934.66
2022-10-18T05:35:59.171Z,101933.34
2022-10-18T05:39:05.262Z,101941.50
2022-10-18T05:42:08.728Z,101943.63
2022-10-18T05:45:11.108Z,101946.78
2022-10-18T05:48:13.460Z,101955.19
2022-10-18T05:51:15.880Z,101928.81
2022-10-18T05:54:18.311Z,101945.16
2022-10-18T05:57:20.743Z,101945.38
2022-10-18T06:00:23.143Z,101948.25
2022-10-18T06:03:27.494Z,101951.84
2022-10-18T06:06:30.960Z,101958.16
2022-10-18T06:09:33.417Z,101952.78
2022-10-18T06:12:35.816Z,101941.38
2022-10-18T06:15:38.186Z,101944.19
2022-10-18T06:18:41.032Z,101951.19
2022-10-18T06:21:43.833Z,101947.06
2022-10-18T06:24:46.153Z,101954.84
2022-10-18T06:27:48.490Z,101943.13
2022-10-18T06:30:50.963Z,101953.25
2022-10-18T06:33:53.264Z,101945.66
2022-10-18T06:36:56.544Z,101939.50
2022-10-18T06:40:01.043Z,101941.78
2022-10-18T06:43:20.535Z,101946.66
2022-10-18T06:46:24.116Z,101948.00
2022-10-18T06:49:26.421Z,101953.09
2022-10-18T06:52:29.629Z,101949.41
2022-10-18T06:55:32.411Z,101960.25
2022-10-18T06:58:35.507Z,101950.59
2022-10-18T07:01:38.235Z,101956.88
2022-10-18T07:04:40.669Z,101949.97
2022-10-18T07:07:42.988Z,101936.00
2022-10-18T07:10:53.137Z,101940.63
2022-10-18T07:14:02.289Z,101947.19
2022-10-18T07:17:04.699Z,101951.09
2022-10-18T07:20:07.586Z,101951.78
2022-10-18T07:23:11.640Z,101964.03
2022-10-18T07:26:16.968Z,101961.56
2022-10-18T07:29:19.387Z,101971.34
2022-10-18T07:32:21.920Z,101952.78
2022-10-18T07:35:24.335Z,101955.22
2022-10-18T07:38:26.677Z,101955.75
2022-10-18T07:41:29.995Z,101952.00
2022-10-18T07:44:32.374Z,101951.59
2022-10-18T07:47:35.374Z,101919.00
2022-10-18T07:50:38.042Z,101946.13
2022-10-18T07:53:40.798Z,101950.38
2022-10-18T07:56:43.171Z,101937.53
2022-10-18T07:59:48.020Z,101927.69
2022-10-18T08:02:56.452Z,101940.06
2022-10-18T08:05:58.915Z,101942.72
2022-10-18T08:09:01.576Z,101925.03
2022-10-18T08:12:06.673Z,101917.44
2022-10-18T08:15:09.350Z,101897.88
2022-10-18T08:18:11.884Z,101903.44
2022-10-18T08:21:15.787Z,101922.34
2022-10-18T08:24:18.122Z,101912.63
2022-10-18T08:27:20.623Z,101909.50
2022-10-18T08:30:26.049Z,101916.09
2022-10-18T08:33:28.390Z,101909.03
2022-10-18T08:36:30.759Z,101902.25
2022-10-18T08:39:33.253Z,101916.13
2022-10-18T08:43:03.158Z,101915.16
2022-10-18T08:46:05.572Z,101893.78
2022-10-18T08:49:15.566Z,101888.84
2022-10-18T08:52:34.733Z,101892.97
2022-10-18T08:55:41.301Z,101894.41
2022-10-18T08:58:44.409Z,101894.69
2022-10-18T09:01:49.693Z,101892.75
2022-10-18T09:05:14.503Z,101888.63
2022-10-18T09:08:20.282Z,101895.56
2022-10-18T09:11:41.999Z,101889.94
2022-10-18T09:14:47.388Z,101891.56
2022-10-18T09:18:20.477Z,101882.09
2022-10-18T09:21:35.314Z,101879.00
2022-10-18T09:24:40.727Z,101877.44
2022-10-18T09:27:54.521Z,101868.69
2022-10-18T09:31:16.753Z,101874.28
2022-10-18T09:34:33.512Z,101872.91
2022-10-18T09:37:36.087Z,101858.94
2022-10-18T09:40:47.177Z,101863.09
2022-10-18T09:43:57.336Z,101851.69
2022-10-18T09:47:16.511Z,101848.00
2022-10-18T09:50:36.866Z,101849.44
2022-10-18T09:54:20.948Z,101832.16
2022-10-18T09:57:32.068Z,101840.06
2022-10-18T10:00:39.218Z,101828.22
2022-10-18T10:03:44.808Z,101823.00
2022-10-18T10:06:52.110Z,101830.06
2022-10-18T10:10:08.930Z,101816.78
2022-10-18T10:13:22.883Z,101826.75
2022-10-18T10:16:26.795Z,101816.19
2022-10-18T10:19:32.623Z,101821.31
2022-10-18T10:22:39.419Z,101804.00
2022-10-18T10:25:42.642Z,101809.59
2022-10-18T10:28:48.649Z,101782.81
2022-10-18T10:32:04.011Z,101791.28
2022-10-18T10:35:34.059Z,101782.72
2022-10-18T10:38:44.866Z,101786.81
2022-10-18T10:41:49.098Z,101756.53
2022-10-18T10:44:54.606Z,101765.81
2022-10-18T10:48:22.767Z,101753.53
2022-10-18T10:51:28.233Z,101755.78
2022-10-18T10:54:36.467Z,101739.38
2022-10-18T10:57:38.906Z,101728.69
2022-10-18T11:00:44.146Z,101735.75
2022-10-18T11:03:48.667Z,101720.53
2022-10-18T11:06:58.017Z,101719.75
2022-10-18T11:10:08.376Z,101727.84
2022-10-18T11:13:37.000Z,101727.47
2022-10-18T11:17:14.644Z,101720.03
2022-10-18T11:20:29.918Z,101714.81
2022-10-18T11:23:33.652Z,101697.97
2022-10-18T11:26:53.454Z,101692.50
2022-10-18T11:30:31.459Z,101696.28
2022-10-18T11:34:14.552Z,101695.88
2022-10-18T11:37:28.561Z,101688.09
2022-10-18T11:40:42.745Z,101679.41
2022-10-18T11:44:03.164Z,101673.25
2022-10-18T11:47:12.044Z,101665.44
2022-10-18T11:50:37.816Z,101647.75
2022-10-18T11:53:58.757Z,101651.91
2022-10-18T11:57:38.687Z,101642.72
2022-10-18T12:01:07.404Z,101626.53
2022-10-18T12:04:17.892Z,101632.31
2022-10-18T12:07:26.793Z,101621.09
2022-10-18T12:10:46.044Z,101617.81
2022-10-18T12:14:01.253Z,101612.06
2022-10-18T12:17:39.843Z,101586.25
2022-10-18T12:20:42.508Z,101609.19
2022-10-18T12:23:51.627Z,101599.66
2022-10-18T12:27:00.812Z,101597.69
2022-10-18T12:30:07.532Z,101591.34
2022-10-18T12:33:28.824Z,101583.41
2022-10-18T12:36:43.536Z,101588.47
2022-10-18T12:40:21.695Z,101556.41
2022-10-18T12:43:23.144Z,101566.91
2022-10-18T12:46:43.392Z,101565.38
2022-10-18T12:49:55.981Z,101564.22
2022-10-18T12:53:03.832Z,101556.50
2022-10-18T12:56:28.144Z,101551.50
2022-10-18T12:59:30.434Z,101549.94
2022-10-18T13:02:33.124Z,101541.06
2022-10-18T13:05:56.220Z,101548.06
2022-10-18T13:09:19.952Z,101534.84
2022-10-18T13:12:22.249Z,101540.28
2022-10-18T13:15:40.848Z,101536.44
2022-10-18T13:18:58.438Z,101530.59
2022-10-18T13:22:15.189Z,101534.47
2022-10-18T13:25:51.550Z,101526.31
2022-10-18T13:29:09.648Z,101513.84
2022-10-18T13:32:27.612Z,101506.22
2022-10-18T13:35:55.841Z,101508.50
2022-10-18T13:39:02.486Z,101493.81
2022-10-18T13:42:14.121Z,101496.94
2022-10-18T13:45:44.578Z,101493.09
2022-10-18T13:48:54.676Z,101487.25
2022-10-18T13:52:12.377Z,101479.06
2022-10-18T13:55:52.105Z,101485.59
2022-10-18T13:59:33.517Z,101466.72
2022-10-18T14:03:02.564Z,101476.81
2022-10-18T14:06:28.575Z,101469.09
2022-10-18T14:09:52.350Z,101466.41
2022-10-18T14:12:58.481Z,101474.13
2022-10-18T14:16:07.309Z,101457.09
2022-10-18T14:19:29.620Z,101451.69
2022-10-18T14:22:32.062Z,101454.78
2022-10-18T14:25:36.233Z,101443.56
2022-10-18T14:28:58.491Z,101436.94
2022-10-18T14:32:00.979Z,101447.41
2022-10-18T14:38:26.328Z,101437.00
2022-10-18T14:41:29.979Z,101433.47
2022-10-18T14:44:32.370Z,101433.44
2022-10-18T14:47:37.293Z,101401.34
2022-10-18T14:50:40.308Z,101416.81
2022-10-18T14:53:43.032Z,101417.16
2022-10-18T14:56:45.719Z,101406.94
2022-10-18T14:59:56.935Z,101407.56
2022-10-18T15:02:59.314Z,101416.59
2022-10-18T15:06:05.107Z,101419.56
2022-10-18T15:09:07.538Z,101402.03
2022-10-18T15:12:12.972Z,101402.50
2022-10-18T15:15:21.431Z,101382.47
2022-10-18T15:18:25.723Z,101400.94
2022-10-18T15:21:28.264Z,101393.81
2022-10-18T15:24:36.500Z,101401.09
2022-10-18T15:27:39.768Z,101403.53
2022-10-18T15:30:43.122Z,101398.50
2022-10-18T15:33:45.736Z,101390.00
2022-10-18T15:36:50.722Z,101403.75
2022-10-18T15:40:24.163Z,101398.88
2022-10-18T15:43:26.523Z,101395.06
2022-10-18T15:46:32.003Z,101377.75
2022-10-18T15:49:47.632Z,101390.84
2022-10-18T15:52:50.155Z,101375.31
2022-10-18T15:56:00.334Z,101387.63
2022-10-18T15:59:06.647Z,101382.53
2022-10-18T16:02:12.812Z,101358.16
2022-10-18T16:05:20.838Z,101380.78
2022-10-18T16:08:25.502Z,101362.41
2022-10-18T16:11:28.420Z,101379.94
2022-10-18T16:14:30.942Z,101380.75
2022-10-18T16:17:33.572Z,101360.88
2022-10-18T16:20:36.336Z,101386.50
2022-10-18T16:23:38.680Z,101371.72
2022-10-18T16:26:41.439Z,101375.63
2022-10-18T16:29:43.763Z,101360.78
2022-10-18T16:32:46.622Z,101354.09
2022-10-18T16:35:49.506Z,101373.50
2022-10-18T16:38:52.041Z,101367.69
2022-10-18T16:41:54.523Z,101353.66
2022-10-18T16:44:58.592Z,101360.56
2022-10-18T16:48:00.922Z,101364.81
2022-10-18T16:51:03.893Z,101359.22
2022-10-18T16:54:06.241Z,101339.81
2022-10-18T16:57:11.680Z,101354.75
2022-10-18T17:00:18.707Z,101353.41
2022-10-18T17:03:21.422Z,101365.00
2022-10-18T17:06:29.379Z,101364.78
2022-10-18T17:09:31.828Z,101344.63
2022-10-18T17:12:34.460Z,101341.16
2022-10-18T17:15:37.122Z,101351.09
2022-10-18T17:18:39.487Z,101359.22
2022-10-18T17:21:42.443Z,101345.19
2022-10-18T17:24:44.931Z,101354.78
2022-10-18T17:27:47.312Z,101349.44
2022-10-18T17:30:56.652Z,101344.28
2022-10-18T17:34:01.488Z,101348.66
2022-10-18T17:37:04.805Z,101346.06
2022-10-18T17:40:08.239Z,101332.56
2022-10-18T17:43:10.796Z,101341.66
2022-10-18T17:46:14.265Z,101339.25
2022-10-18T17:49:17.154Z,101327.56
2022-10-18T17:52:19.471Z,101319.91
2022-10-18T17:55:21.796Z,101331.66
2022-10-18T17:58:24.243Z,101323.84
2022-10-18T18:01:26.764Z,101313.44
2022-10-18T18:04:29.224Z,101324.56
2022-10-18T18:07:31.722Z,101328.91
2022-10-18T18:10:35.055Z,101327.88
2022-10-18T18:13:37.492Z,101313.19
2022-10-18T18:16:43.002Z,101316.06
2022-10-18T18:19:45.360Z,101310.75
2022-10-18T18:22:47.786Z,101276.03
2022-10-18T18:25:57.472Z,101296.41
2022-10-18T18:29:00.290Z,101305.63
2022-10-18T18:32:03.403Z,101305.81
2022-10-18T18:35:06.083Z,101312.81
2022-10-18T18:38:09.100Z,101308.34
2022-10-18T18:41:17.559Z,101295.63
2022-10-18T18:44:20.908Z,101297.69
2022-10-18T18:47:23.494Z,101312.59
2022-10-18T18:50:28.194Z,101309.31
2022-10-18T18:53:31.102Z,101301.16
2022-10-18T18:56:34.048Z,101299.03
2022-10-18T18:59:36.492Z,101297.72
2022-10-18T19:02:39.000Z,101281.97
2022-10-18T19:05:41.420Z,101281.72
2022-10-18T19:08:46.992Z,101286.91
2022-10-18T19:11:52.344Z,101271.91
2022-10-18T19:14:54.802Z,101289.59
2022-10-18T19:17:57.262Z,101295.66
2022-10-18T19:20:59.702Z,101308.41
2022-10-18T19:24:02.708Z,101310.75
2022-10-18T19:27:12.292Z,101293.41
2022-10-18T19:30:14.836Z,101279.09
2022-10-18T19:33:35.508Z,101288.19
2022-10-18T19:36:46.279Z,101288.69
2022-10-18T19:39:48.974Z,101301.88
2022-10-18T19:42:51.373Z,101298.50
2022-10-18T19:45:53.745Z,101267.91
2022-10-18T19:48:56.100Z,101286.41
2022-10-18T19:51:58.652Z,101282.38
2022-10-18T19:55:01.049Z,101271.72
2022-10-18T19:58:03.552Z,101265.47
2022-10-18T20:01:06.455Z,101268.22
2022-10-18T20:04:09.974Z,101266.84
2022-10-18T20:07:12.354Z,101266.81
2022-10-18T20:10:16.977Z,101271.75
2022-10-18T20:13:20.025Z,101284.53
2022-10-18T20:16:28.087Z,101293.69
2022-10-18T20:19:31.527Z,101293.59
2022-10-18T20:22:34.268Z,101275.97
2022-10-18T20:25:36.853Z,101268.34
2022-10-18T20:28:39.775Z,101274.31
2022-10-18T20:31:42.160Z,101280.41
2022-10-18T20:34:44.556Z,101250.84
2022-10-18T20:37:47.397Z,101267.16
2022-10-18T20:40:52.221Z,101247.84
2022-10-18T20:43:59.947Z,101276.25
2022-10-18T20:47:02.289Z,101266.78
2022-10-18T20:50:05.128Z,101265.44
2022-10-18T20:53:07.605Z,101261.41
2022-10-18T20:56:12.773Z,101237.47
2022-10-18T20:59:15.243Z,101238.66
2022-10-18T21:02:17.615Z,101223.38
2022-10-18T21:05:19.963Z,101236.69
2022-10-18T21:08:22.384Z,101227.84
2022-10-18T21:11:26.020Z,101241.22
2022-10-18T21:14:28.448Z,101234.94
2022-10-18T21:17:30.936Z,101235.94
2022-10-18T21:20:34.660Z,101212.44
2022-10-18T21:23:37.409Z,101213.72
2022-10-18T21:26:40.383Z,101219.53
2022-10-18T21:29:42.715Z,101208.06
2022-10-18T21:32:45.125Z,101191.06
2022-10-18T21:35:47.473Z,101191.31
2022-10-18T21:38:49.864Z,101184.19
2022-10-18T21:41:52.317Z,101187.50
2022-10-18T21:44:54.725Z,101189.94
2022-10-18T21:47:57.092Z,101190.00
2022-10-18T21:51:07.901Z,101184.38
2022-10-18T21:54:14.982Z,101168.66
2022-10-18T21:57:17.339Z,101167.66
2022-10-18T22:00:20.834Z,101185.31
2022-10-18T22:03:23.388Z,101173.31
2022-10-18T22:06:32.053Z,101182.19
2022-10-18T22:09:34.587Z,101146.78
2022-10-18T22:12:37.065Z,101152.44
2022-10-18T22:15:39.465Z,101145.53
2022-10-18T22:18:43.381Z,101124.97
2022-10-18T22:21:45.891Z,101143.50
2022-10-18T22:24:48.284Z,101147.91
2022-10-18T22:27:50.769Z,101159.06
2022-10-18T22:30:53.232Z,101140.66
2022-10-18T22:33:58.494Z,101151.47
2022-10-18T22:37:00.975Z,101148.53
2022-10-18T22:40:04.320Z,101142.94
2022-10-18T22:43:06.731Z,101130.50
2022-10-18T22:46:12.206Z,101136.91
2022-10-18T22:49:14.796Z,101124.63
2022-10-18T22:52:17.272Z,101122.59
2022-10-18T22:55:19.663Z,101128.50
2022-10-18T22:58:22.242Z,101136.03
2022-10-18T23:01:25.316Z,101138.41
2022-10-18T23:04:27.962Z,101107.41
2022-10-18T23:07:30.383Z,101125.09
2022-10-18T23:10:38.206Z,101125.41
2022-10-18T23:13:40.662Z,101135.38
2022-10-18T23:16:43.382Z,101136.63
2022-10-18T23:19:46.264Z,101130.69
2022-10-18T23:22:48.707Z,101107.19
2022-10-18T23:25:53.904Z,101151.25
2022-10-18T23:28:57.314Z,101144.13
2022-10-18T23:31:59.755Z,101152.91
2022-10-18T23:35:02.158Z,101147.97
2022-10-18T23:38:04.598Z,101127.16
2022-10-18T23:41:10.151Z,101128.13
2022-10-18T23:44:12.682Z,101136.56
2022-10-18T23:47:15.576Z,101129.84
2022-10-18T23:50:20.503Z,101145.59
2022-10-18T23:53:23.285Z,101121.31
2022-10-18T23:56:25.888Z,101127.31
2022-10-18T23:59:28.313Z,101113.78
